Time;durP1;ratioP1;P1;durP2;ratioP2;P2;SDS_P1;SDS_P2;PMS_P1;PMS_P2;Temp;Humidity;BMP_temperature;BMP_pressure;BME280_temperature;BME280_humidity;BME280_pressure;Samples;Min_cycle;Max_cycle;Signal;HPM_P1;HPM_P2
2023/07/14 00:00:14;;;;;;;9.93;5.32;;;;;;;22.39;77.73;94522.38;4913805;29;20204;-75
2023/07/14 00:02:40;;;;;;;13.57;5.20;;;;;;;22.37;77.91;94527.50;4913758;29;20200;-75
2023/07/14 00:05:17;;;;;;;8.38;5.22;;;;;;;22.47;77.50;94532.16;4913384;29;20659;-75
2023/07/14 00:07:45;;;;;;;7.30;4.85;;;;;;;22.47;76.90;94521.91;4913077;29;20211;-75
2023/07/14 00:10:16;;;;;;;8.15;5.13;;;;;;;22.44;76.99;94522.72;4913477;29;20208;-75
2023/07/14 00:12:43;;;;;;;10.30;5.30;;;;;;;22.47;77.74;94526.66;4913078;29;20273;-75
2023/07/14 00:15:10;;;;;;;6.95;4.07;;;;;;;22.46;78.21;94525.06;4913293;29;20563;-75
2023/07/14 00:17:37;;;;;;;8.85;5.72;;;;;;;22.22;79.38;94521.31;4912248;29;20778;-75
2023/07/14 00:20:18;;;;;;;10.85;5.80;;;;;;;22.29;79.14;94521.25;4912776;29;20942;-75
2023/07/14 00:22:45;;;;;;;8.35;4.82;;;;;;;22.32;78.94;94510.19;4913331;29;20216;-75
2023/07/14 00:25:12;;;;;;;13.07;6.47;;;;;;;22.33;79.07;94505.44;4913092;29;20208;-75
2023/07/14 00:27:40;;;;;;;9.70;5.28;;;;;;;22.27;79.63;94490.53;4912921;29;20250;-75
2023/07/14 00:30:14;;;;;;;9.32;5.10;;;;;;;22.21;80.78;94511.47;4912862;29;20220;-75
2023/07/14 00:32:41;;;;;;;7.72;5.32;;;;;;;22.01;80.54;94513.16;4913000;29;20200;-75
2023/07/14 00:35:25;;;;;;;13.95;6.68;;;;;;;21.91;80.45;94507.25;4912991;29;20519;-75
2023/07/14 00:37:55;;;;;;;8.27;5.13;;;;;;;21.86;80.72;94499.44;4911330;29;20291;-75
2023/07/14 00:40:25;;;;;;;10.27;5.20;;;;;;;21.98;80.16;94495.41;4912729;29;20291;-75
2023/07/14 00:42:55;;;;;;;12.02;5.78;;;;;;;22.04;79.86;94498.56;4912834;29;20204;-75
2023/07/14 00:45:24;;;;;;;9.13;4.85;;;;;;;21.68;82.06;94515.28;4911973;29;20200;-75
2023/07/14 00:47:57;;;;;;;8.43;5.30;;;;;;;21.71;82.06;94520.00;4911475;29;20295;-74
2023/07/14 00:50:30;;;;;;;9.10;4.95;;;;;;;21.48;83.26;94538.97;4912623;29;20208;-75
2023/07/14 00:53:02;;;;;;;8.60;4.90;;;;;;;21.58;82.32;94554.72;4908691;29;20268;-75
2023/07/14 00:55:36;;;;;;;11.82;5.88;;;;;;;21.52;82.58;94578.34;4912666;29;20206;-74
2023/07/14 00:58:03;;;;;;;10.43;5.53;;;;;;;21.44;83.25;94571.31;4909516;29;20267;-74
2023/07/14 01:00:31;;;;;;;10.10;5.53;;;;;;;21.57;82.96;94573.22;4912340;29;20239;-75
2023/07/14 01:02:58;;;;;;;8.73;5.22;;;;;;;21.72;82.29;94571.19;4911625;29;20549;-75
2023/07/14 01:05:28;;;;;;;13.00;6.15;;;;;;;21.73;82.66;94583.03;4912357;29;20211;-75
2023/07/14 01:07:56;;;;;;;12.70;5.43;;;;;;;21.72;82.55;94598.78;4912363;29;20350;-75
2023/07/14 01:10:26;;;;;;;9.40;5.88;;;;;;;21.69;82.47;94577.50;4912172;29;20660;-75
2023/07/14 01:12:58;;;;;;;10.48;5.53;;;;;;;21.74;82.11;94582.59;4912310;29;20255;-75
2023/07/14 01:15:25;;;;;;;10.15;5.60;;;;;;;21.69;82.40;94583.03;4912399;29;20299;-75
2023/07/14 01:17:53;;;;;;;10.27;5.75;;;;;;;21.58;82.76;94587.81;4912625;29;20240;-75
2023/07/14 01:20:21;;;;;;;8.77;5.03;;;;;;;21.65;82.74;94585.00;4912192;29;20300;-75
2023/07/14 01:23:00;;;;;;;8.68;5.97;;;;;;;21.72;82.47;94575.94;4916000;29;20239;-75
2023/07/14 01:25:38;;;;;;;12.80;6.25;;;;;;;21.74;82.45;94577.09;4916189;29;20290;-75
2023/07/14 01:28:08;;;;;;;9.00;5.47;;;;;;;21.83;81.86;94571.94;4919706;29;20628;-75
2023/07/14 01:30:36;;;;;;;10.50;6.07;;;;;;;21.91;82.46;94575.44;4924523;29;20610;-75
2023/07/14 01:33:04;;;;;;;9.45;5.85;;;;;;;21.95;81.90;94577.00;4920638;29;20205;-75
2023/07/14 01:35:33;;;;;;;12.15;6.05;;;;;;;21.88;82.66;94579.78;4920727;29;20231;-75
2023/07/14 01:38:00;;;;;;;9.90;5.60;;;;;;;21.75;83.18;94564.88;4931049;29;20504;-75
2023/07/14 01:40:28;;;;;;;13.07;6.50;;;;;;;21.60;84.02;94563.34;4923003;29;20268;-75
2023/07/14 01:42:59;;;;;;;8.77;5.70;;;;;;;21.56;84.52;94562.59;4918813;29;20216;-75
2023/07/14 01:45:31;;;;;;;10.93;6.50;;;;;;;21.79;82.90;94559.34;4928935;29;20208;-75
2023/07/14 01:48:02;;;;;;;12.00;6.15;;;;;;;21.82;82.99;94556.56;4925778;29;20203;-75
2023/07/14 01:50:33;;;;;;;12.23;6.57;;;;;;;21.96;81.92;94542.72;4915482;29;20610;-75
2023/07/14 01:53:05;;;;;;;15.10;6.50;;;;;;;21.96;81.71;94548.22;4927315;29;20212;-75
2023/07/14 01:55:35;;;;;;;7.88;5.38;;;;;;;21.91;81.37;94551.41;4924877;29;20202;-73
2023/07/14 01:58:08;;;;;;;9.35;5.90;;;;;;;21.87;81.36;94550.63;4918476;29;20234;-74
2023/07/14 02:00:38;;;;;;;8.80;5.63;;;;;;;21.88;81.31;94552.19;4915332;29;20200;-74
2023/07/14 02:03:08;;;;;;;16.02;7.20;;;;;;;21.94;81.72;94556.13;4924714;29;20211;-74
2023/07/14 02:05:37;;;;;;;11.13;5.72;;;;;;;21.87;82.54;94566.38;4917150;29;20275;-74
2023/07/14 02:08:10;;;;;;;11.15;6.03;;;;;;;21.74;83.56;94568.81;4915669;29;20224;-76
2023/07/14 02:10:37;;;;;;;11.00;6.35;;;;;;;21.78;84.16;94577.06;4924986;29;20204;-74
2023/07/14 02:13:06;;;;;;;9.80;6.20;;;;;;;21.62;85.25;94588.56;4915138;29;20245;-74
2023/07/14 02:15:34;;;;;;;9.27;6.13;;;;;;;21.43;86.88;94600.03;4920838;29;20242;-75
2023/07/14 02:18:03;;;;;;;8.80;5.75;;;;;;;21.31;88.32;94605.97;4915432;29;20722;-73
2023/07/14 02:20:34;;;;;;;12.93;7.43;;;;;;;21.22;88.86;94623.69;4921817;29;20250;-73
2023/07/14 02:23:04;;;;;;;16.40;6.43;;;;;;;21.13;89.22;94631.56;4920132;29;20280;-74
2023/07/14 02:25:34;;;;;;;11.13;6.32;;;;;;;21.16;88.99;94649.25;4917488;29;20200;-75
2023/07/14 02:28:01;;;;;;;16.73;7.10;;;;;;;21.22;89.34;94653.22;4930221;29;20212;-74
2023/07/14 02:30:29;;;;;;;12.50;6.57;;;;;;;21.28;88.37;94662.66;4922747;29;20552;-74
2023/07/14 02:33:02;;;;;;;17.63;6.85;;;;;;;21.14;88.37;94663.44;4918136;29;20244;-74
2023/07/14 02:35:45;;;;;;;10.90;6.00;;;;;;;21.18;88.65;94664.19;4930460;29;20211;-74
2023/07/14 02:38:13;;;;;;;13.43;6.45;;;;;;;21.23;88.00;94663.06;4926113;29;20750;-74
2023/07/14 02:40:46;;;;;;;8.93;6.28;;;;;;;21.22;86.82;94670.53;4917744;29;20216;-74
2023/07/14 02:43:15;;;;;;;12.25;6.05;;;;;;;21.27;86.55;94670.16;4915708;29;20208;-74
2023/07/14 02:45:48;;;;;;;14.65;7.75;;;;;;;21.35;87.19;94667.38;4918840;29;20619;-74
2023/07/14 02:48:18;;;;;;;8.85;6.05;;;;;;;21.27;87.07;94672.91;4922612;29;20637;-75
2023/07/14 02:50:46;;;;;;;10.50;6.20;;;;;;;21.16;87.16;94672.09;4916869;29;20227;-76
2023/07/14 02:53:14;;;;;;;11.90;6.53;;;;;;;21.14;87.04;94668.94;4927323;29;20212;-75
2023/07/14 02:55:40;;;;;;;13.50;6.45;;;;;;;21.28;86.73;94666.22;4926484;29;20640;-76
2023/07/14 02:58:07;;;;;;;10.50;6.07;;;;;;;21.20;86.99;94661.88;4918249;29;20295;-75
2023/07/14 03:00:35;;;;;;;9.30;5.85;;;;;;;21.25;86.75;94663.44;4925107;29;20271;-75
2023/07/14 03:03:02;;;;;;;14.63;6.43;;;;;;;21.27;85.98;94655.56;4924854;29;20212;-75
2023/07/14 03:05:29;;;;;;;10.80;6.32;;;;;;;21.40;84.54;94647.69;4923794;29;20219;-75
2023/07/14 03:07:58;;;;;;;19.38;6.47;;;;;;;21.50;85.16;94658.69;4914963;29;20212;-75
2023/07/14 03:10:24;;;;;;;17.35;6.63;;;;;;;21.55;85.05;94671.28;4924228;29;20216;-75
2023/07/14 03:12:53;;;;;;;12.02;5.95;;;;;;;21.66;84.54;94655.50;4921456;29;20229;-75
2023/07/14 03:15:20;;;;;;;15.63;6.47;;;;;;;21.66;84.62;94655.50;4918820;29;20684;-75
2023/07/14 03:17:47;;;;;;;10.90;6.40;;;;;;;21.70;84.66;94667.31;4918912;29;20223;-76
2023/07/14 03:20:14;;;;;;;12.85;7.07;;;;;;;21.70;84.89;94661.03;4927807;29;20601;-75
2023/07/14 03:22:41;;;;;;;9.98;6.70;;;;;;;21.73;84.93;94663.00;4919182;29;20291;-73
2023/07/14 03:25:09;;;;;;;11.40;6.85;;;;;;;21.80;84.78;94672.03;4916068;29;20822;-73
2023/07/14 03:27:37;;;;;;;10.52;6.30;;;;;;;21.74;84.63;94679.13;4905871;29;20200;-72
2023/07/14 03:30:04;;;;;;;15.23;6.90;;;;;;;21.65;86.47;94687.03;4924543;29;20208;-74
2023/07/14 03:32:31;;;;;;;13.93;6.95;;;;;;;21.53;87.94;94690.19;4916550;29;20231;-74
2023/07/14 03:34:58;;;;;;;10.98;6.38;;;;;;;21.69;87.66;94687.81;4914306;29;20604;-74
2023/07/14 03:37:25;;;;;;;16.58;7.63;;;;;;;21.83;87.07;94696.06;4925709;29;20243;-74
2023/07/14 03:39:51;;;;;;;9.23;6.57;;;;;;;22.19;85.37;94693.22;4923090;29;20222;-74
2023/07/14 03:42:19;;;;;;;10.82;6.65;;;;;;;22.54;83.02;94687.53;4913824;29;20276;-74
2023/07/14 03:44:46;;;;;;;12.50;6.43;;;;;;;22.90;81.40;94698.41;4924330;29;20267;-74
2023/07/14 03:47:13;;;;;;;11.07;6.13;;;;;;;23.49;79.33;94695.59;4921683;29;20711;-74
2023/07/14 03:49:40;;;;;;;12.80;6.88;;;;;;;24.07;75.80;94691.84;4920346;29;20207;-74
2023/07/14 03:52:07;;;;;;;10.82;6.43;;;;;;;24.39;74.75;94691.50;4921026;29;20204;-74
2023/07/14 03:54:34;;;;;;;13.27;7.53;;;;;;;24.84;72.66;94691.31;4917666;29;20216;-74
2023/07/14 03:57:01;;;;;;;11.35;7.05;;;;;;;24.75;72.70;94698.16;4918633;29;20299;-75
2023/07/14 03:59:29;;;;;;;18.15;7.10;;;;;;;24.59;72.30;94711.84;4919000;29;20251;-75
2023/07/14 04:01:56;;;;;;;10.75;7.22;;;;;;;24.19;73.56;94721.00;4928848;29;20200;-75
2023/07/14 04:04:23;;;;;;;12.38;6.03;;;;;;;24.00;73.19;94720.41;4923924;29;20205;-74
2023/07/14 04:06:50;;;;;;;11.88;6.20;;;;;;;24.28;72.16;94729.63;4917525;29;20208;-75
2023/07/14 04:09:17;;;;;;;10.05;6.82;;;;;;;25.07;70.21;94721.91;4915181;29;20299;-74
2023/07/14 04:11:44;;;;;;;15.27;7.97;;;;;;;25.61;66.80;94713.53;4927419;29;20251;-75
2023/07/14 04:14:11;;;;;;;15.38;8.90;;;;;;;25.48;67.15;94722.44;4919819;29;20363;-73
2023/07/14 04:16:39;;;;;;;10.68;6.55;;;;;;;25.99;66.08;94739.84;4914208;29;20327;-75
2023/07/14 04:19:06;;;;;;;11.15;7.15;;;;;;;25.95;65.68;94747.47;4923581;29;20272;-75
2023/07/14 04:21:34;;;;;;;12.85;6.70;;;;;;;25.88;65.39;94760.66;4906724;29;20244;-75
2023/07/14 04:24:01;;;;;;;14.10;8.25;;;;;;;26.52;63.04;94771.41;4915080;29;20204;-75
2023/07/14 04:26:29;;;;;;;12.45;8.05;;;;;;;27.13;60.61;94771.00;4913379;29;20330;-75
2023/07/14 04:28:56;;;;;;;12.60;9.23;;;;;;;27.20;60.67;94765.25;4922553;29;20636;-76
2023/07/14 04:31:23;;;;;;;14.52;8.60;;;;;;;28.49;56.78;94780.44;4915039;29;20208;-76
2023/07/14 04:33:52;;;;;;;12.45;7.97;;;;;;;28.96;52.26;94775.19;4915396;29;20688;-76
2023/07/14 04:36:19;;;;;;;13.68;7.45;;;;;;;30.19;51.72;94780.94;4921510;29;20271;-76
2023/07/14 04:39:01;;;;;;;13.48;7.57;;;;;;;30.05;51.02;94787.00;4921520;29;20286;-76
2023/07/14 04:41:28;;;;;;;11.85;8.05;;;;;;;29.27;52.46;94823.66;4919129;29;20306;-76
2023/07/14 04:43:54;;;;;;;11.80;7.80;;;;;;;28.48;53.25;94840.19;4918321;29;20211;-75
2023/07/14 04:46:21;;;;;;;12.85;7.65;;;;;;;29.74;51.44;94816.72;4925335;29;20207;-76
2023/07/14 04:48:50;;;;;;;16.33;8.00;;;;;;;31.01;48.23;94817.25;4917809;29;20212;-75
2023/07/14 04:51:18;;;;;;;15.35;8.40;;;;;;;31.14;46.53;94826.38;4915997;29;20201;-74
2023/07/14 04:53:45;;;;;;;14.75;8.75;;;;;;;31.78;44.47;94824.72;4927755;29;20204;-76
2023/07/14 04:56:12;;;;;;;12.07;7.30;;;;;;;31.99;44.43;94827.91;4922504;29;20211;-76
2023/07/14 04:58:39;;;;;;;12.20;8.02;;;;;;;32.09;43.84;94818.31;4915614;29;20229;-76
2023/07/14 05:01:05;;;;;;;12.45;7.60;;;;;;;32.14;42.42;94834.50;4912494;29;20212;-77
2023/07/14 05:03:32;;;;;;;13.23;8.05;;;;;;;31.58;43.74;94832.69;4922028;29;20272;-76
2023/07/14 05:05:59;;;;;;;10.63;7.38;;;;;;;31.64;43.70;94833.69;4916129;29;20289;-76
2023/07/14 05:08:27;;;;;;;13.23;8.02;;;;;;;32.13;43.04;94816.13;4913379;29;20224;-77
2023/07/14 05:10:54;;;;;;;12.73;7.85;;;;;;;32.72;41.50;94822.53;4923128;29;20260;-75
2023/07/14 05:13:21;;;;;;;15.15;7.45;;;;;;;32.14;42.71;94826.09;4913970;29;20700;-75
2023/07/14 05:15:47;;;;;;;10.95;6.95;;;;;;;32.46;42.34;94811.56;4917205;29;20200;-77
2023/07/14 05:18:14;;;;;;;10.95;7.10;;;;;;;32.13;43.13;94818.94;4920891;29;20234;-77
2023/07/14 05:20:41;;;;;;;13.27;7.28;;;;;;;31.15;44.52;94822.34;4922853;29;20228;-76
2023/07/14 05:23:11;;;;;;;11.88;7.00;;;;;;;31.77;43.35;94817.56;4917377;29;20296;-78
2023/07/14 05:25:39;;;;;;;11.23;7.53;;;;;;;31.51;44.78;94830.19;4914598;29;20219;-75
2023/07/14 05:28:06;;;;;;;10.77;6.95;;;;;;;32.73;42.89;94824.88;4926918;29;20218;-74
2023/07/14 05:30:34;;;;;;;12.02;7.38;;;;;;;32.28;43.61;94833.16;4919371;29;20205;-75
2023/07/14 05:33:00;;;;;;;14.18;7.93;;;;;;;32.60;43.21;94835.44;4915013;29;20255;-75
2023/07/14 05:35:27;;;;;;;14.77;7.13;;;;;;;32.58;43.56;94845.56;4914702;29;20211;-74
2023/07/14 05:37:56;;;;;;;10.73;6.55;;;;;;;33.32;41.95;94841.56;4925044;29;20239;-75
2023/07/14 05:40:23;;;;;;;15.90;7.60;;;;;;;32.32;42.57;94840.22;4916560;29;20210;-75
2023/07/14 05:42:51;;;;;;;11.90;6.93;;;;;;;32.84;42.59;94838.44;4912694;29;20229;-74
2023/07/14 05:45:18;;;;;;;9.70;6.90;;;;;;;33.62;41.89;94840.56;4923454;29;20263;-75
2023/07/14 05:47:46;;;;;;;10.93;6.75;;;;;;;34.15;40.87;94840.88;4922366;29;20199;-75
2023/07/14 05:50:14;;;;;;;13.95;7.38;;;;;;;34.67;40.24;94837.94;4903503;29;20546;-75
2023/07/14 05:52:41;;;;;;;12.07;7.28;;;;;;;35.43;39.32;94845.63;4924379;29;20214;-75
2023/07/14 05:55:08;;;;;;;11.93;7.05;;;;;;;34.39;39.93;94843.72;4920950;29;20263;-75
2023/07/14 05:57:36;;;;;;;10.20;7.20;;;;;;;35.15;38.39;94835.84;4909197;29;20358;-75
2023/07/14 06:00:12;;;;;;;10.77;7.10;;;;;;;35.48;38.99;94835.72;4911495;29;20211;-76
2023/07/14 06:02:40;;;;;;;10.77;7.53;;;;;;;34.90;39.53;94837.94;4921826;29;20660;-75
2023/07/14 06:05:08;;;;;;;12.82;7.60;;;;;;;35.56;37.64;94831.25;4918991;29;20212;-75
2023/07/14 06:07:34;;;;;;;11.82;7.18;;;;;;;36.39;37.29;94829.03;4907996;29;20299;-76
2023/07/14 06:10:02;;;;;;;12.23;7.18;;;;;;;36.58;37.15;94830.34;4918592;29;20219;-76
2023/07/14 06:12:28;;;;;;;11.98;7.05;;;;;;;36.78;35.25;94832.41;4923674;29;20235;-75
2023/07/14 06:14:55;;;;;;;16.48;8.02;;;;;;;35.50;37.02;94833.22;4917243;29;20272;-75
2023/07/14 06:17:23;;;;;;;12.32;6.82;;;;;;;35.66;36.96;94829.91;4917122;29;20277;-75
2023/07/14 06:19:50;;;;;;;13.52;7.07;;;;;;;36.99;36.11;94833.19;4924860;29;20608;-75
2023/07/14 06:22:17;;;;;;;11.73;6.57;;;;;;;36.98;35.05;94823.16;4921298;29;20295;-75
2023/07/14 06:24:44;;;;;;;11.60;6.55;;;;;;;36.02;36.90;94825.13;4914958;29;20204;-75
2023/07/14 06:27:10;;;;;;;10.80;7.18;;;;;;;35.43;38.25;94831.53;4914738;29;20208;-75
2023/07/14 06:29:37;;;;;;;12.75;6.65;;;;;;;37.19;36.08;94833.19;4916947;29;20220;-75
2023/07/14 06:32:05;;;;;;;9.57;6.68;;;;;;;36.47;36.04;94830.19;4926340;29;20267;-75
2023/07/14 06:34:33;;;;;;;12.20;6.72;;;;;;;36.58;36.47;94816.22;4915244;29;20212;-75
2023/07/14 06:37:00;;;;;;;11.77;7.55;;;;;;;37.00;36.08;94829.09;4915252;29;20212;-75
2023/07/14 06:39:27;;;;;;;9.18;6.53;;;;;;;35.89;38.03;94834.69;4915216;29;20640;-75
2023/07/14 06:41:53;;;;;;;10.70;6.97;;;;;;;35.51;38.18;94826.31;4915101;29;20216;-75
2023/07/14 06:44:21;;;;;;;11.30;7.32;;;;;;;35.12;38.57;94826.34;4914205;29;20471;-75
2023/07/14 06:46:48;;;;;;;12.52;7.75;;;;;;;33.74;41.52;94838.81;4914598;29;20679;-74
2023/07/14 06:49:15;;;;;;;9.57;7.07;;;;;;;32.82;43.04;94840.91;4914632;29;20221;-74
2023/07/14 06:51:43;;;;;;;12.18;6.88;;;;;;;32.71;42.89;94838.56;4914355;29;20664;-76
2023/07/14 06:54:09;;;;;;;11.45;6.72;;;;;;;32.52;43.89;94837.00;4915258;29;20523;-74
2023/07/14 06:56:36;;;;;;;9.45;6.38;;;;;;;33.84;42.06;94835.53;4915363;29;20580;-75
2023/07/14 06:59:03;;;;;;;12.00;6.53;;;;;;;32.87;43.18;94843.13;4915003;29;20224;-75
2023/07/14 07:01:30;;;;;;;14.73;7.15;;;;;;;33.57;42.11;94841.19;4915751;29;20271;-76
2023/07/14 07:03:58;;;;;;;10.45;7.03;;;;;;;33.95;41.00;94842.66;4915154;29;20570;-75
2023/07/14 07:06:25;;;;;;;11.73;6.80;;;;;;;34.67;40.99;94835.91;4914883;29;20208;-77
2023/07/14 07:08:53;;;;;;;9.68;6.15;;;;;;;33.07;42.40;94837.81;4914915;29;20228;-72
2023/07/14 07:11:20;;;;;;;12.75;7.25;;;;;;;33.40;42.92;94842.78;4914915;29;20236;-74
2023/07/14 07:13:47;;;;;;;10.13;6.28;;;;;;;32.84;43.77;94841.25;4915321;29;20219;-74
2023/07/14 07:16:16;;;;;;;9.68;6.15;;;;;;;32.69;43.68;94840.25;4915243;29;20259;-74
2023/07/14 07:18:42;;;;;;;9.95;6.25;;;;;;;34.29;40.67;94838.63;4915134;29;20263;-75
2023/07/14 07:21:12;;;;;;;9.90;6.20;;;;;;;35.24;40.58;94833.75;4914532;29;20244;-75
2023/07/14 07:23:39;;;;;;;10.20;6.10;;;;;;;36.10;37.92;94823.44;4915137;29;20200;-76
2023/07/14 07:26:07;;;;;;;11.65;5.95;;;;;;;34.42;40.82;94834.34;4914678;29;20212;-74
2023/07/14 07:28:34;;;;;;;14.82;6.55;;;;;;;32.91;43.05;94846.56;4913835;29;20215;-74
2023/07/14 07:31:08;;;;;;;12.35;6.55;;;;;;;35.02;40.92;94827.66;4914414;29;20263;-74
2023/07/14 07:33:36;;;;;;;14.65;6.40;;;;;;;34.56;40.75;94830.81;4914205;29;20239;-74
2023/07/14 07:36:14;;;;;;;9.20;5.60;;;;;;;35.36;39.43;94822.69;4913926;29;20223;-75
2023/07/14 07:38:43;;;;;;;12.18;6.07;;;;;;;35.49;39.12;94826.00;4914187;29;20299;-74
2023/07/14 07:41:11;;;;;;;9.43;6.30;;;;;;;33.52;42.11;94824.97;4914134;29;20212;-74
2023/07/14 07:43:38;;;;;;;10.30;6.43;;;;;;;34.32;41.62;94821.56;4913859;29;20248;-75
2023/07/14 07:46:05;;;;;;;9.70;5.95;;;;;;;34.52;41.45;94818.94;4913841;29;20240;-74
2023/07/14 07:48:32;;;;;;;9.40;5.38;;;;;;;34.54;40.92;94812.84;4913506;29;20204;-75
2023/07/14 07:50:58;;;;;;;7.63;5.72;;;;;;;34.96;39.22;94815.53;4913818;29;20234;-77
2023/07/14 07:53:25;;;;;;;9.38;6.43;;;;;;;35.77;38.84;94807.56;4913772;29;20620;-75
2023/07/14 07:55:53;;;;;;;8.48;5.63;;;;;;;34.90;40.34;94811.81;4913787;29;20567;-77
2023/07/14 07:58:24;;;;;;;7.65;5.88;;;;;;;34.86;40.78;94808.41;4901290;29;20568;-73
2023/07/14 08:00:51;;;;;;;10.13;5.88;;;;;;;34.54;41.80;94810.81;4913420;29;20224;-76
2023/07/14 08:03:18;;;;;;;12.23;6.30;;;;;;;34.18;42.18;94810.97;4913430;29;20659;-76
2023/07/14 08:05:45;;;;;;;12.90;6.22;;;;;;;34.06;40.98;94801.50;4913636;29;20215;-76
2023/07/14 08:08:11;;;;;;;14.27;6.38;;;;;;;34.61;40.74;94804.03;4913296;29;20672;-75
2023/07/14 08:10:42;;;;;;;8.73;6.00;;;;;;;34.84;40.56;94800.44;4913198;29;20236;-75
2023/07/14 08:13:09;;;;;;;8.55;5.63;;;;;;;34.83;40.43;94792.47;4913032;29;20260;-76
2023/07/14 08:15:38;;;;;;;10.77;6.07;;;;;;;34.49;41.16;94796.59;4912769;29;20585;-75
2023/07/14 08:18:07;;;;;;;13.70;7.05;;;;;;;34.36;41.41;94794.03;4912751;29;20240;-75
2023/07/14 08:20:34;;;;;;;10.90;6.38;;;;;;;33.73;42.65;94790.25;4913282;29;20343;-77
2023/07/14 08:23:03;;;;;;;10.13;6.47;;;;;;;33.23;42.81;94796.59;4913204;29;20215;-75
2023/07/14 08:25:30;;;;;;;10.68;6.78;;;;;;;32.54;44.51;94795.19;4913119;29;20298;-75
2023/07/14 08:27:57;;;;;;;10.05;6.20;;;;;;;32.11;44.59;94791.38;4913515;29;20217;-76
2023/07/14 08:30:23;;;;;;;10.25;6.65;;;;;;;32.51;45.72;94789.75;4912295;29;20204;-74
2023/07/14 08:32:52;;;;;;;10.52;7.40;;;;;;;31.95;45.35;94788.06;4912550;29;20267;-75
2023/07/14 08:35:19;;;;;;;9.32;6.72;;;;;;;33.42;42.15;94789.72;4912992;29;20679;-75
2023/07/14 08:37:46;;;;;;;10.88;6.07;;;;;;;34.24;40.30;94776.09;4913107;29;20232;-76
2023/07/14 08:40:15;;;;;;;9.90;6.72;;;;;;;34.52;41.82;94773.91;4911975;29;20244;-75
2023/07/14 08:42:50;;;;;;;11.60;6.78;;;;;;;34.95;42.15;94777.34;4913135;29;20246;-76
2023/07/14 08:45:31;;;;;;;9.85;6.35;;;;;;;33.65;41.83;94786.19;4913063;29;20272;-74
2023/07/14 08:48:13;;;;;;;13.00;6.93;;;;;;;32.83;42.37;94781.50;4912567;29;20613;-75
2023/07/14 08:50:40;;;;;;;11.77;6.85;;;;;;;32.79;42.41;94777.31;4912870;29;20223;-75
2023/07/14 08:53:17;;;;;;;11.02;6.50;;;;;;;32.48;43.07;94781.03;4912687;29;20212;-77
2023/07/14 08:55:44;;;;;;;9.45;6.60;;;;;;;32.75;41.97;94777.47;4912797;29;20713;-74
2023/07/14 08:58:17;;;;;;;11.50;7.47;;;;;;;32.84;42.00;94768.25;4912461;29;20228;-75
2023/07/14 09:00:55;;;;;;;14.90;7.10;;;;;;;32.66;42.78;94768.25;4912660;29;20224;-76
2023/07/14 09:03:36;;;;;;;11.15;6.80;;;;;;;32.56;43.31;94775.09;4912344;29;20740;-75
2023/07/14 09:06:21;;;;;;;13.82;6.60;;;;;;;33.16;41.15;94776.03;4912723;29;20219;-74
2023/07/14 09:08:49;;;;;;;10.50;6.88;;;;;;;33.89;40.29;94769.44;4912732;29;20768;-75
2023/07/14 09:11:30;;;;;;;14.05;7.22;;;;;;;34.20;39.02;94757.84;4912302;29;20232;-75
2023/07/14 09:14:04;;;;;;;14.55;7.60;;;;;;;34.39;38.81;94753.69;4912031;29;20216;-75
2023/07/14 09:16:35;;;;;;;10.90;7.05;;;;;;;34.43;38.45;94748.66;4912030;29;20200;-75
2023/07/14 09:19:13;;;;;;;9.48;7.07;;;;;;;34.22;40.12;94749.72;4911937;29;20236;-75
2023/07/14 09:21:48;;;;;;;13.90;7.60;;;;;;;33.83;40.25;94755.25;4911760;29;20252;-75
2023/07/14 09:24:21;;;;;;;15.48;7.43;;;;;;;33.83;40.01;94746.81;4912820;29;20245;-75
2023/07/14 09:26:54;;;;;;;10.40;7.20;;;;;;;33.42;41.40;94744.78;4912583;29;20212;-74
2023/07/14 09:29:31;;;;;;;14.95;7.03;;;;;;;32.45;43.20;94748.28;4912623;29;20204;-75
2023/07/14 09:32:04;;;;;;;9.95;7.32;;;;;;;32.26;43.50;94738.28;4912259;29;20699;-74
2023/07/14 09:34:37;;;;;;;17.25;7.20;;;;;;;32.51;43.07;94739.25;4911748;29;20236;-74
2023/07/14 09:37:15;;;;;;;14.50;6.80;;;;;;;33.32;41.61;94740.44;4911536;29;20415;-75
2023/07/14 09:39:45;;;;;;;11.77;7.35;;;;;;;33.41;41.82;94741.19;4911799;29;20228;-77
2023/07/14 09:42:17;;;;;;;13.02;7.88;;;;;;;32.58;42.71;94741.75;4899452;29;20230;-77
2023/07/14 09:44:44;;;;;;;12.75;7.55;;;;;;;33.08;42.81;94731.88;4912397;29;20608;-77
2023/07/14 09:47:11;;;;;;;12.50;7.40;;;;;;;33.45;42.86;94726.97;4912037;29;20271;-76
2023/07/14 09:49:43;;;;;;;11.93;7.90;;;;;;;34.01;40.00;94722.66;4912202;29;20282;-75
2023/07/14 09:52:13;;;;;;;16.33;7.80;;;;;;;33.66;40.93;94734.38;4915644;29;20204;-75
2023/07/14 09:54:50;;;;;;;12.13;7.60;;;;;;;33.18;42.42;94727.81;4915907;29;20625;-74
2023/07/14 09:57:19;;;;;;;12.45;7.40;;;;;;;32.77;43.57;94723.69;4915738;29;20207;-74
2023/07/14 09:59:57;;;;;;;14.45;8.50;;;;;;;31.71;44.38;94724.13;4915725;29;20320;-78
2023/07/14 10:02:28;;;;;;;9.25;7.80;;;;;;;32.18;46.24;94719.41;4915855;29;20223;-75
2023/07/14 10:05:21;;;;;;;11.88;7.97;;;;;;;32.70;43.63;94709.94;4915507;29;20280;-74
2023/07/14 10:07:48;;;;;;;10.32;7.63;;;;;;;32.94;42.50;94710.84;4915777;29;20591;-76
2023/07/14 10:10:15;;;;;;;14.80;8.50;;;;;;;33.32;41.48;94715.16;4915075;29;20661;-75
2023/07/14 10:12:47;;;;;;;11.95;8.27;;;;;;;32.62;42.50;94700.28;4915388;29;20556;-74
2023/07/14 10:15:30;;;;;;;15.18;8.27;;;;;;;32.84;42.55;94706.50;4915483;29;20720;-75
2023/07/14 10:17:59;;;;;;;10.70;7.60;;;;;;;33.63;42.22;94704.41;4903520;29;20291;-75
2023/07/14 10:20:28;;;;;;;15.02;8.38;;;;;;;33.44;41.41;94702.94;4915003;29;20252;-75
2023/07/14 10:22:57;;;;;;;13.07;8.25;;;;;;;33.72;41.36;94695.94;4915686;29;20219;-75
2023/07/14 10:25:26;;;;;;;12.10;7.97;;;;;;;33.73;40.32;94691.88;4915203;29;20265;-75
2023/07/14 10:27:58;;;;;;;12.55;8.00;;;;;;;34.04;39.69;94687.94;4914990;29;20211;-75
2023/07/14 10:30:57;;;;;;;13.57;8.43;;;;;;;34.18;40.42;94687.22;4915458;29;20268;-75
2023/07/14 10:33:26;;;;;;;11.48;7.65;;;;;;;33.71;40.99;94683.13;4911721;29;20254;-75
2023/07/14 10:36:00;;;;;;;15.35;8.50;;;;;;;34.06;39.90;94679.81;4915413;29;20216;-75
2023/07/14 10:38:32;;;;;;;14.32;7.60;;;;;;;33.73;39.79;94680.63;4915039;29;20204;-75
2023/07/14 10:41:01;;;;;;;12.82;8.55;;;;;;;34.10;39.49;94671.97;4915490;29;20209;-75
2023/07/14 10:43:33;;;;;;;13.98;8.50;;;;;;;33.66;39.77;94675.34;4914557;29;20687;-74
2023/07/14 10:46:04;;;;;;;11.63;8.40;;;;;;;34.30;38.80;94669.38;4914814;29;20212;-75
2023/07/14 10:48:36;;;;;;;13.27;8.23;;;;;;;34.40;40.13;94659.59;4914877;29;20323;-79
2023/07/14 10:51:11;;;;;;;14.80;8.43;;;;;;;34.46;40.08;94666.09;4914985;29;20271;-74
2023/07/14 10:53:44;;;;;;;14.82;8.57;;;;;;;33.53;41.10;94667.13;4915068;29;20299;-75
2023/07/14 10:56:25;;;;;;;14.50;8.50;;;;;;;33.02;41.52;94669.97;4914449;29;20208;-75
2023/07/14 10:58:57;;;;;;;11.05;8.05;;;;;;;33.44;40.96;94669.22;4914791;29;20211;-75
2023/07/14 11:01:33;;;;;;;12.48;8.05;;;;;;;33.70;40.96;94667.53;4913012;29;20548;-74
2023/07/14 11:04:10;;;;;;;14.05;8.02;;;;;;;33.50;40.88;94667.31;4914423;29;20212;-75
2023/07/14 11:06:44;;;;;;;15.32;8.85;;;;;;;33.95;40.06;94662.72;4914988;29;20246;-76
2023/07/14 11:09:14;;;;;;;12.60;8.35;;;;;;;33.85;39.34;94659.97;4914515;29;20235;-76
2023/07/14 11:11:48;;;;;;;15.75;8.30;;;;;;;34.33;37.60;94659.16;4914755;29;20236;-76
2023/07/14 11:14:26;;;;;;;13.93;8.05;;;;;;;34.92;36.33;94660.03;4914199;29;20642;-76
2023/07/14 11:17:03;;;;;;;14.00;8.52;;;;;;;35.39;36.28;94656.25;4914987;29;20268;-76
2023/07/14 11:19:49;;;;;;;13.23;8.10;;;;;;;35.03;37.11;94660.22;4914749;29;20236;-75
2023/07/14 11:22:29;;;;;;;11.05;7.70;;;;;;;34.81;37.18;94654.22;4914295;29;20248;-76
2023/07/14 11:25:06;;;;;;;13.73;8.18;;;;;;;33.72;38.90;94650.97;4914647;29;20196;-76
2023/07/14 11:27:38;;;;;;;11.00;7.38;;;;;;;33.71;40.33;94657.84;4914443;29;20208;-76
2023/07/14 11:30:16;;;;;;;12.80;7.20;;;;;;;33.17;39.83;94662.44;4914239;29;20259;-75
2023/07/14 11:32:52;;;;;;;17.67;8.88;;;;;;;33.54;38.70;94651.06;4914452;29;20727;-76
2023/07/14 11:35:30;;;;;;;11.68;8.05;;;;;;;33.58;38.38;94645.28;4917990;29;20207;-76
2023/07/14 11:38:08;;;;;;;11.50;8.10;;;;;;;33.74;38.05;94637.22;4921095;29;20252;-75